sensor_id;sensor_type;location;lat;lon;timestamp;temperature;humidity
4697;DHT22;2362;50.780;0.292;2022-07-03T00:01:58;15.60;99.90
4697;DHT22;2362;50.780;0.292;2022-07-03T00:04:24;15.50;99.90
4697;DHT22;2362;50.780;0.292;2022-07-03T00:06:50;15.50;99.90
4697;DHT22;2362;50.780;0.292;2022-07-03T00:09:18;15.40;99.90
4697;DHT22;2362;50.780;0.292;2022-07-03T00:11:44;15.40;99.90
4697;DHT22;2362;50.780;0.292;2022-07-03T00:14:10;15.30;99.90
4697;DHT22;2362;50.780;0.292;2022-07-03T00:16:35;15.30;99.90
4697;DHT22;2362;50.780;0.292;2022-07-03T00:19:01;15.20;99.90
4697;DHT22;2362;50.780;0.292;2022-07-03T00:21:31;15.20;99.90
4697;DHT22;2362;50.780;0.292;2022-07-03T00:24:04;15.20;99.90
4697;DHT22;2362;50.780;0.292;2022-07-03T00:26:33;15.20;99.90
4697;DHT22;2362;50.780;0.292;2022-07-03T00:29:03;15.20;99.90
4697;DHT22;2362;50.780;0.292;2022-07-03T00:31:30;15.20;99.90
4697;DHT22;2362;50.780;0.292;2022-07-03T00:34:00;15.20;99.90
4697;DHT22;2362;50.780;0.292;2022-07-03T00:36:30;15.30;99.90
4697;DHT22;2362;50.780;0.292;2022-07-03T00:38:59;15.30;99.90
4697;DHT22;2362;50.780;0.292;2022-07-03T00:41:27;15.40;99.90
4697;DHT22;2362;50.780;0.292;2022-07-03T00:43:53;15.40;99.90
4697;DHT22;2362;50.780;0.292;2022-07-03T00:46:22;15.40;99.90
4697;DHT22;2362;50.780;0.292;2022-07-03T00:48:49;15.40;99.90
4697;DHT22;2362;50.780;0.292;2022-07-03T00:51:20;15.50;99.90
4697;DHT22;2362;50.780;0.292;2022-07-03T00:53:46;15.50;99.90
4697;DHT22;2362;50.780;0.292;2022-07-03T00:56:16;15.50;99.90
4697;DHT22;2362;50.780;0.292;2022-07-03T00:58:42;15.50;99.90
4697;DHT22;2362;50.780;0.292;2022-07-03T01:01:09;15.50;99.90
4697;DHT22;2362;50.780;0.292;2022-07-03T01:03:39;15.50;99.90
4697;DHT22;2362;50.780;0.292;2022-07-03T01:06:13;15.40;99.90
4697;DHT22;2362;50.780;0.292;2022-07-03T01:08:51;15.30;99.90
4697;DHT22;2362;50.780;0.292;2022-07-03T01:11:48;15.30;99.90
4697;DHT22;2362;50.780;0.292;2022-07-03T01:16:54;15.20;99.90
4697;DHT22;2362;50.780;0.292;2022-07-03T01:22:35;15.00;99.90
4697;DHT22;2362;50.780;0.292;2022-07-03T01:30:44;14.70;99.90
4697;DHT22;2362;50.780;0.292;2022-07-03T01:33:16;14.60;99.90
4697;DHT22;2362;50.780;0.292;2022-07-03T01:38:23;14.50;99.90
4697;DHT22;2362;50.780;0.292;2022-07-03T01:40:55;14.50;99.90
4697;DHT22;2362;50.780;0.292;2022-07-03T01:43:27;14.50;99.90
4697;DHT22;2362;50.780;0.292;2022-07-03T01:45:59;14.40;99.90
4697;DHT22;2362;50.780;0.292;2022-07-03T01:48:26;14.40;99.90
4697;DHT22;2362;50.780;0.292;2022-07-03T01:50:53;14.30;99.90
4697;DHT22;2362;50.780;0.292;2022-07-03T01:53:20;14.30;99.90
4697;DHT22;2362;50.780;0.292;2022-07-03T01:55:50;14.20;99.90
4697;DHT22;2362;50.780;0.292;2022-07-03T01:58:17;14.20;99.90
4697;DHT22;2362;50.780;0.292;2022-07-03T02:01:02;14.20;99.90
4697;DHT22;2362;50.780;0.292;2022-07-03T02:03:33;14.20;99.90
4697;DHT22;2362;50.780;0.292;2022-07-03T02:06:09;14.10;99.90
4697;DHT22;2362;50.780;0.292;2022-07-03T02:08:50;14.10;99.90
4697;DHT22;2362;50.780;0.292;2022-07-03T02:11:21;14.10;99.90
4697;DHT22;2362;50.780;0.292;2022-07-03T02:16:25;14.00;99.90
4697;DHT22;2362;50.780;0.292;2022-07-03T02:19:04;14.00;99.90
4697;DHT22;2362;50.780;0.292;2022-07-03T02:21:30;14.00;99.90
4697;DHT22;2362;50.780;0.292;2022-07-03T02:24:21;13.90;99.90
4697;DHT22;2362;50.780;0.292;2022-07-03T02:27:04;13.90;99.90
4697;DHT22;2362;50.780;0.292;2022-07-03T02:29:41;13.80;99.90
4697;DHT22;2362;50.780;0.292;2022-07-03T02:32:12;13.80;99.90
4697;DHT22;2362;50.780;0.292;2022-07-03T02:34:38;13.80;99.90
4697;DHT22;2362;50.780;0.292;2022-07-03T02:37:15;13.70;99.90
4697;DHT22;2362;50.780;0.292;2022-07-03T02:39:52;13.70;99.90
4697;DHT22;2362;50.780;0.292;2022-07-03T02:45:09;13.60;99.90
4697;DHT22;2362;50.780;0.292;2022-07-03T02:48:12;13.60;99.90
4697;DHT22;2362;50.780;0.292;2022-07-03T02:50:46;13.60;99.90
4697;DHT22;2362;50.780;0.292;2022-07-03T02:53:33;13.70;99.90
4697;DHT22;2362;50.780;0.292;2022-07-03T02:56:08;13.80;99.90
4697;DHT22;2362;50.780;0.292;2022-07-03T03:02:01;14.00;99.90
4697;DHT22;2362;50.780;0.292;2022-07-03T03:04:30;14.10;99.90
4697;DHT22;2362;50.780;0.292;2022-07-03T03:07:17;14.10;99.90
4697;DHT22;2362;50.780;0.292;2022-07-03T03:09:45;14.10;99.90
4697;DHT22;2362;50.780;0.292;2022-07-03T03:12:14;14.10;99.90
4697;DHT22;2362;50.780;0.292;2022-07-03T03:14:41;14.20;99.90
4697;DHT22;2362;50.780;0.292;2022-07-03T03:17:29;14.20;99.90
4697;DHT22;2362;50.780;0.292;2022-07-03T03:20:00;14.10;99.90
4697;DHT22;2362;50.780;0.292;2022-07-03T03:24:58;14.00;99.90
4697;DHT22;2362;50.780;0.292;2022-07-03T03:27:26;13.90;99.90
4697;DHT22;2362;50.780;0.292;2022-07-03T03:29:52;13.80;99.90
4697;DHT22;2362;50.780;0.292;2022-07-03T03:32:19;13.70;99.90
4697;DHT22;2362;50.780;0.292;2022-07-03T03:34:46;13.60;99.90
4697;DHT22;2362;50.780;0.292;2022-07-03T03:37:12;13.50;99.90
4697;DHT22;2362;50.780;0.292;2022-07-03T03:39:38;13.40;99.90
4697;DHT22;2362;50.780;0.292;2022-07-03T03:42:04;13.30;99.90
4697;DHT22;2362;50.780;0.292;2022-07-03T03:44:30;13.30;99.90
4697;DHT22;2362;50.780;0.292;2022-07-03T03:46:56;13.20;99.90
4697;DHT22;2362;50.780;0.292;2022-07-03T03:49:22;13.10;99.90
4697;DHT22;2362;50.780;0.292;2022-07-03T03:51:48;13.10;99.90
4697;DHT22;2362;50.780;0.292;2022-07-03T03:54:13;13.10;99.90
4697;DHT22;2362;50.780;0.292;2022-07-03T03:56:39;13.00;99.90
4697;DHT22;2362;50.780;0.292;2022-07-03T03:59:05;13.00;99.90
4697;DHT22;2362;50.780;0.292;2022-07-03T04:01:30;13.00;99.90
4697;DHT22;2362;50.780;0.292;2022-07-03T04:03:56;12.90;99.90
4697;DHT22;2362;50.780;0.292;2022-07-03T04:06:24;12.90;99.90
4697;DHT22;2362;50.780;0.292;2022-07-03T04:08:50;12.90;99.90
4697;DHT22;2362;50.780;0.292;2022-07-03T04:11:16;12.80;99.90
4697;DHT22;2362;50.780;0.292;2022-07-03T04:13:42;12.70;99.90
4697;DHT22;2362;50.780;0.292;2022-07-03T04:16:08;12.70;99.90
4697;DHT22;2362;50.780;0.292;2022-07-03T04:18:34;12.70;99.90
4697;DHT22;2362;50.780;0.292;2022-07-03T04:21:00;12.70;99.90
4697;DHT22;2362;50.780;0.292;2022-07-03T04:23:25;12.70;99.90
4697;DHT22;2362;50.780;0.292;2022-07-03T04:25:51;12.70;99.90
4697;DHT22;2362;50.780;0.292;2022-07-03T04:28:16;12.70;99.90
4697;DHT22;2362;50.780;0.292;2022-07-03T04:30:42;12.70;99.90
4697;DHT22;2362;50.780;0.292;2022-07-03T04:33:08;12.70;99.90
4697;DHT22;2362;50.780;0.292;2022-07-03T04:35:34;12.70;99.90
4697;DHT22;2362;50.780;0.292;2022-07-03T04:37:59;12.70;99.90
4697;DHT22;2362;50.780;0.292;2022-07-03T04:40:25;12.70;99.90
4697;DHT22;2362;50.780;0.292;2022-07-03T04:42:51;12.80;99.90
4697;DHT22;2362;50.780;0.292;2022-07-03T04:45:16;12.80;99.90
4697;DHT22;2362;50.780;0.292;2022-07-03T04:47:42;12.80;99.90
4697;DHT22;2362;50.780;0.292;2022-07-03T04:50:08;12.80;99.90
4697;DHT22;2362;50.780;0.292;2022-07-03T04:52:34;12.80;99.90
4697;DHT22;2362;50.780;0.292;2022-07-03T04:54:59;12.80;99.90
4697;DHT22;2362;50.780;0.292;2022-07-03T04:57:25;12.80;99.90
4697;DHT22;2362;50.780;0.292;2022-07-03T04:59:51;12.90;99.90
4697;DHT22;2362;50.780;0.292;2022-07-03T05:02:16;13.00;99.90
4697;DHT22;2362;50.780;0.292;2022-07-03T05:04:42;13.10;99.90
4697;DHT22;2362;50.780;0.292;2022-07-03T05:07:08;13.60;99.90
4697;DHT22;2362;50.780;0.292;2022-07-03T05:09:33;14.90;99.90
4697;DHT22;2362;50.780;0.292;2022-07-03T05:11:59;16.10;99.90
4697;DHT22;2362;50.780;0.292;2022-07-03T05:14:24;17.00;99.90
4697;DHT22;2362;50.780;0.292;2022-07-03T05:16:50;17.80;99.90
4697;DHT22;2362;50.780;0.292;2022-07-03T05:19:16;18.50;99.90
4697;DHT22;2362;50.780;0.292;2022-07-03T05:21:41;19.20;99.90
4697;DHT22;2362;50.780;0.292;2022-07-03T05:24:07;19.60;99.90
4697;DHT22;2362;50.780;0.292;2022-07-03T05:26:33;20.00;99.90
4697;DHT22;2362;50.780;0.292;2022-07-03T05:28:58;20.10;99.90
4697;DHT22;2362;50.780;0.292;2022-07-03T05:31:24;20.30;99.90
4697;DHT22;2362;50.780;0.292;2022-07-03T05:33:50;20.20;99.90
4697;DHT22;2362;50.780;0.292;2022-07-03T05:36:16;20.30;99.90
4697;DHT22;2362;50.780;0.292;2022-07-03T05:38:41;20.20;99.90
4697;DHT22;2362;50.780;0.292;2022-07-03T05:41:26;20.60;99.90
4697;DHT22;2362;50.780;0.292;2022-07-03T05:43:51;20.90;99.90
4697;DHT22;2362;50.780;0.292;2022-07-03T05:46:17;21.30;99.90
4697;DHT22;2362;50.780;0.292;2022-07-03T05:48:43;22.20;99.90
4697;DHT22;2362;50.780;0.292;2022-07-03T05:51:08;22.20;99.90
4697;DHT22;2362;50.780;0.292;2022-07-03T05:53:34;21.90;99.90
4697;DHT22;2362;50.780;0.292;2022-07-03T05:56:00;22.10;99.90
4697;DHT22;2362;50.780;0.292;2022-07-03T05:58:26;22.60;99.90
4697;DHT22;2362;50.780;0.292;2022-07-03T06:00:52;23.20;99.90
4697;DHT22;2362;50.780;0.292;2022-07-03T06:03:18;22.00;99.90
4697;DHT22;2362;50.780;0.292;2022-07-03T06:05:43;20.60;99.90
4697;DHT22;2362;50.780;0.292;2022-07-03T06:08:09;19.40;99.90
4697;DHT22;2362;50.780;0.292;2022-07-03T06:10:35;19.00;99.90
4697;DHT22;2362;50.780;0.292;2022-07-03T06:13:01;18.30;99.90
4697;DHT22;2362;50.780;0.292;2022-07-03T06:15:27;17.60;99.90
4697;DHT22;2362;50.780;0.292;2022-07-03T06:17:53;17.40;99.90
4697;DHT22;2362;50.780;0.292;2022-07-03T06:20:18;17.10;99.90
4697;DHT22;2362;50.780;0.292;2022-07-03T06:22:45;17.00;99.90
4697;DHT22;2362;50.780;0.292;2022-07-03T06:25:11;17.00;99.90
4697;DHT22;2362;50.780;0.292;2022-07-03T06:27:37;16.70;99.90
4697;DHT22;2362;50.780;0.292;2022-07-03T06:30:03;16.50;99.90
4697;DHT22;2362;50.780;0.292;2022-07-03T06:32:29;16.40;99.90
4697;DHT22;2362;50.780;0.292;2022-07-03T06:34:55;16.50;99.90
4697;DHT22;2362;50.780;0.292;2022-07-03T06:37:22;16.50;99.90
4697;DHT22;2362;50.780;0.292;2022-07-03T06:39:48;16.60;99.90
4697;DHT22;2362;50.780;0.292;2022-07-03T06:42:13;16.50;99.90
4697;DHT22;2362;50.780;0.292;2022-07-03T06:44:39;16.50;99.90
4697;DHT22;2362;50.780;0.292;2022-07-03T06:47:06;16.50;99.90
4697;DHT22;2362;50.780;0.292;2022-07-03T06:49:33;16.70;99.90
4697;DHT22;2362;50.780;0.292;2022-07-03T06:51:59;16.90;99.90
4697;DHT22;2362;50.780;0.292;2022-07-03T06:54:24;16.90;99.90
4697;DHT22;2362;50.780;0.292;2022-07-03T06:56:50;16.90;99.90
4697;DHT22;2362;50.780;0.292;2022-07-03T06:59:16;17.00;99.90
4697;DHT22;2362;50.780;0.292;2022-07-03T07:01:42;17.30;99.90
4697;DHT22;2362;50.780;0.292;2022-07-03T07:04:07;17.30;99.90
4697;DHT22;2362;50.780;0.292;2022-07-03T07:06:33;17.30;99.90
4697;DHT22;2362;50.780;0.292;2022-07-03T07:08:59;17.40;99.90
4697;DHT22;2362;50.780;0.292;2022-07-03T07:11:24;17.90;99.90
4697;DHT22;2362;50.780;0.292;2022-07-03T07:13:50;18.20;99.90
4697;DHT22;2362;50.780;0.292;2022-07-03T07:16:16;18.50;99.90
4697;DHT22;2362;50.780;0.292;2022-07-03T07:18:42;19.50;99.90
4697;DHT22;2362;50.780;0.292;2022-07-03T07:21:09;20.70;99.90
4697;DHT22;2362;50.780;0.292;2022-07-03T07:23:35;21.60;99.90
4697;DHT22;2362;50.780;0.292;2022-07-03T07:26:01;21.80;99.90
4697;DHT22;2362;50.780;0.292;2022-07-03T07:28:27;22.90;99.90
4697;DHT22;2362;50.780;0.292;2022-07-03T07:30:53;23.00;99.90
4697;DHT22;2362;50.780;0.292;2022-07-03T07:33:21;23.30;99.90
4697;DHT22;2362;50.780;0.292;2022-07-03T07:35:47;23.60;99.90
4697;DHT22;2362;50.780;0.292;2022-07-03T07:38:13;23.40;99.90
4697;DHT22;2362;50.780;0.292;2022-07-03T07:40:38;23.40;99.90
4697;DHT22;2362;50.780;0.292;2022-07-03T07:43:04;23.60;99.90
4697;DHT22;2362;50.780;0.292;2022-07-03T07:45:30;22.50;99.90
4697;DHT22;2362;50.780;0.292;2022-07-03T07:47:56;21.90;99.90
4697;DHT22;2362;50.780;0.292;2022-07-03T07:50:21;21.50;99.90
4697;DHT22;2362;50.780;0.292;2022-07-03T07:52:47;21.40;99.90
4697;DHT22;2362;50.780;0.292;2022-07-03T07:55:13;21.70;99.90
4697;DHT22;2362;50.780;0.292;2022-07-03T07:57:40;21.70;99.90
4697;DHT22;2362;50.780;0.292;2022-07-03T08:00:11;21.70;99.90
4697;DHT22;2362;50.780;0.292;2022-07-03T08:02:37;21.50;99.90
4697;DHT22;2362;50.780;0.292;2022-07-03T08:05:22;21.70;99.90
4697;DHT22;2362;50.780;0.292;2022-07-03T08:08:15;21.00;99.90
4697;DHT22;2362;50.780;0.292;2022-07-03T08:13:10;20.00;99.90
4697;DHT22;2362;50.780;0.292;2022-07-03T08:15:36;19.80;99.90
4697;DHT22;2362;50.780;0.292;2022-07-03T08:18:02;20.30;99.90
4697;DHT22;2362;50.780;0.292;2022-07-03T08:20:28;21.40;99.90
4697;DHT22;2362;50.780;0.292;2022-07-03T08:22:54;22.80;99.90
4697;DHT22;2362;50.780;0.292;2022-07-03T08:25:20;22.90;99.90
4697;DHT22;2362;50.780;0.292;2022-07-03T08:27:47;22.00;99.90
4697;DHT22;2362;50.780;0.292;2022-07-03T08:30:13;20.90;99.90
4697;DHT22;2362;50.780;0.292;2022-07-03T08:32:45;21.50;99.90
4697;DHT22;2362;50.780;0.292;2022-07-03T08:35:13;22.50;99.90
4697;DHT22;2362;50.780;0.292;2022-07-03T08:37:39;22.50;99.90
4697;DHT22;2362;50.780;0.292;2022-07-03T08:40:07;22.20;99.90
4697;DHT22;2362;50.780;0.292;2022-07-03T08:42:35;21.50;99.90
4697;DHT22;2362;50.780;0.292;2022-07-03T08:45:02;21.10;99.90
4697;DHT22;2362;50.780;0.292;2022-07-03T08:47:29;20.60;99.90
4697;DHT22;2362;50.780;0.292;2022-07-03T08:49:58;20.40;99.90
4697;DHT22;2362;50.780;0.292;2022-07-03T08:52:26;20.50;99.90
4697;DHT22;2362;50.780;0.292;2022-07-03T08:54:51;21.50;99.90
4697;DHT22;2362;50.780;0.292;2022-07-03T08:57:18;22.30;99.90
4697;DHT22;2362;50.780;0.292;2022-07-03T08:59:46;22.50;99.90
4697;DHT22;2362;50.780;0.292;2022-07-03T09:02:15;22.50;99.90
4697;DHT22;2362;50.780;0.292;2022-07-03T09:04:42;21.90;99.90
4697;DHT22;2362;50.780;0.292;2022-07-03T09:07:09;22.00;99.90
4697;DHT22;2362;50.780;0.292;2022-07-03T09:09:38;23.10;99.90
4697;DHT22;2362;50.780;0.292;2022-07-03T09:12:05;23.70;99.90
4697;DHT22;2362;50.780;0.292;2022-07-03T09:14:31;24.50;99.90
4697;DHT22;2362;50.780;0.292;2022-07-03T09:16:56;25.50;99.90
4697;DHT22;2362;50.780;0.292;2022-07-03T09:19:42;25.00;99.90
4697;DHT22;2362;50.780;0.292;2022-07-03T09:22:29;23.80;99.90
4697;DHT22;2362;50.780;0.292;2022-07-03T09:25:06;23.30;99.90
4697;DHT22;2362;50.780;0.292;2022-07-03T09:27:34;23.40;99.90
4697;DHT22;2362;50.780;0.292;2022-07-03T09:30:02;23.40;99.90
4697;DHT22;2362;50.780;0.292;2022-07-03T09:35:18;23.40;99.90
4697;DHT22;2362;50.780;0.292;2022-07-03T09:38:03;24.00;99.90
4697;DHT22;2362;50.780;0.292;2022-07-03T09:40:49;23.80;99.90
4697;DHT22;2362;50.780;0.292;2022-07-03T09:43:25;22.70;99.90
4697;DHT22;2362;50.780;0.292;2022-07-03T09:46:00;22.70;99.90
4697;DHT22;2362;50.780;0.292;2022-07-03T09:48:37;22.70;99.90
4697;DHT22;2362;50.780;0.292;2022-07-03T09:51:23;22.70;99.90
4697;DHT22;2362;50.780;0.292;2022-07-03T09:53:59;22.50;99.90
4697;DHT22;2362;50.780;0.292;2022-07-03T09:56:33;22.60;99.90
4697;DHT22;2362;50.780;0.292;2022-07-03T09:59:15;22.50;99.90
4697;DHT22;2362;50.780;0.292;2022-07-03T10:01:42;22.20;99.90
4697;DHT22;2362;50.780;0.292;2022-07-03T10:04:14;22.20;99.90
4697;DHT22;2362;50.780;0.292;2022-07-03T10:06:55;22.10;99.90
4697;DHT22;2362;50.780;0.292;2022-07-03T10:11:52;21.30;99.90
4697;DHT22;2362;50.780;0.292;2022-07-03T10:14:20;21.50;99.90
4697;DHT22;2362;50.780;0.292;2022-07-03T10:16:46;21.30;99.90
4697;DHT22;2362;50.780;0.292;2022-07-03T10:19:23;21.10;99.90
4697;DHT22;2362;50.780;0.292;2022-07-03T10:21:53;21.00;99.90
4697;DHT22;2362;50.780;0.292;2022-07-03T10:24:22;21.10;99.90
4697;DHT22;2362;50.780;0.292;2022-07-03T10:26:49;21.40;99.90
4697;DHT22;2362;50.780;0.292;2022-07-03T10:29:15;21.70;99.90
4697;DHT22;2362;50.780;0.292;2022-07-03T10:31:45;22.10;99.90
4697;DHT22;2362;50.780;0.292;2022-07-03T10:34:24;22.00;99.90
4697;DHT22;2362;50.780;0.292;2022-07-03T10:37:02;22.20;99.90
4697;DHT22;2362;50.780;0.292;2022-07-03T10:42:04;22.00;99.90
4697;DHT22;2362;50.780;0.292;2022-07-03T10:45:05;22.10;99.90
4697;DHT22;2362;50.780;0.292;2022-07-03T10:47:45;22.10;99.90
4697;DHT22;2362;50.780;0.292;2022-07-03T10:50:22;21.80;99.90
4697;DHT22;2362;50.780;0.292;2022-07-03T10:52:49;22.10;99.90
4697;DHT22;2362;50.780;0.292;2022-07-03T10:55:16;22.20;99.90
4697;DHT22;2362;50.780;0.292;2022-07-03T10:58:05;22.30;99.90
4697;DHT22;2362;50.780;0.292;2022-07-03T11:00:29;22.20;99.90
4697;DHT22;2362;50.780;0.292;2022-07-03T11:02:54;22.10;99.90
4697;DHT22;2362;50.780;0.292;2022-07-03T11:05:22;21.80;99.90
4697;DHT22;2362;50.780;0.292;2022-07-03T11:15:39;21.50;99.90
4697;DHT22;2362;50.780;0.292;2022-07-03T11:25:50;21.20;99.90
4697;DHT22;2362;50.780;0.292;2022-07-03T11:41:28;20.80;99.90
4697;DHT22;2362;50.780;0.292;2022-07-03T11:43:56;20.90;99.90
4697;DHT22;2362;50.780;0.292;2022-07-03T11:46:25;20.70;99.90
4697;DHT22;2362;50.780;0.292;2022-07-03T11:49:16;20.60;99.90
4697;DHT22;2362;50.780;0.292;2022-07-03T11:51:56;20.70;99.90
4697;DHT22;2362;50.780;0.292;2022-07-03T11:54:22;20.90;99.90
4697;DHT22;2362;50.780;0.292;2022-07-03T11:56:48;21.00;99.90
4697;DHT22;2362;50.780;0.292;2022-07-03T11:59:14;21.00;99.90
4697;DHT22;2362;50.780;0.292;2022-07-03T12:01:39;20.90;99.90
4697;DHT22;2362;50.780;0.292;2022-07-03T12:06:36;20.90;99.90
4697;DHT22;2362;50.780;0.292;2022-07-03T12:09:03;20.90;99.90
4697;DHT22;2362;50.780;0.292;2022-07-03T12:11:36;20.90;99.90
4697;DHT22;2362;50.780;0.292;2022-07-03T12:14:02;21.00;99.90
4697;DHT22;2362;50.780;0.292;2022-07-03T12:16:32;20.70;99.90
4697;DHT22;2362;50.780;0.292;2022-07-03T12:19:04;20.70;99.90
4697;DHT22;2362;50.780;0.292;2022-07-03T12:21:38;20.80;99.90
4697;DHT22;2362;50.780;0.292;2022-07-03T12:24:11;20.80;99.90
4697;DHT22;2362;50.780;0.292;2022-07-03T12:26:37;20.70;99.90
4697;DHT22;2362;50.780;0.292;2022-07-03T12:29:10;20.60;99.90
4697;DHT22;2362;50.780;0.292;2022-07-03T12:31:45;20.50;99.90
4697;DHT22;2362;50.780;0.292;2022-07-03T12:34:13;20.40;99.90
4697;DHT22;2362;50.780;0.292;2022-07-03T12:36:39;20.20;99.90
4697;DHT22;2362;50.780;0.292;2022-07-03T12:39:05;20.30;99.90
4697;DHT22;2362;50.780;0.292;2022-07-03T12:41:32;20.50;99.90
4697;DHT22;2362;50.780;0.292;2022-07-03T12:43:59;20.40;99.90
4697;DHT22;2362;50.780;0.292;2022-07-03T12:46:34;20.50;99.90
4697;DHT22;2362;50.780;0.292;2022-07-03T12:49:09;20.50;99.90
4697;DHT22;2362;50.780;0.292;2022-07-03T12:51:46;20.20;99.90
4697;DHT22;2362;50.780;0.292;2022-07-03T12:54:22;20.20;99.90
4697;DHT22;2362;50.780;0.292;2022-07-03T12:57:09;20.40;99.90
4697;DHT22;2362;50.780;0.292;2022-07-03T13:00:13;20.50;99.90
4697;DHT22;2362;50.780;0.292;2022-07-03T13:02:44;20.70;99.90
4697;DHT22;2362;50.780;0.292;2022-07-03T13:05:18;20.70;99.90
4697;DHT22;2362;50.780;0.292;2022-07-03T13:07:46;20.40;99.90
4697;DHT22;2362;50.780;0.292;2022-07-03T13:10:14;20.20;99.90
4697;DHT22;2362;50.780;0.292;2022-07-03T13:12:56;20.10;99.90
4697;DHT22;2362;50.780;0.292;2022-07-03T13:15:29;20.00;99.90
4697;DHT22;2362;50.780;0.292;2022-07-03T13:17:55;20.00;99.90
4697;DHT22;2362;50.780;0.292;2022-07-03T13:20:22;20.00;99.90
4697;DHT22;2362;50.780;0.292;2022-07-03T13:22:49;20.10;99.90
4697;DHT22;2362;50.780;0.292;2022-07-03T13:25:15;20.20;99.90
4697;DHT22;2362;50.780;0.292;2022-07-03T13:27:40;20.30;99.90
4697;DHT22;2362;50.780;0.292;2022-07-03T13:30:09;20.50;99.90
4697;DHT22;2362;50.780;0.292;2022-07-03T13:32:35;20.40;99.90
4697;DHT22;2362;50.780;0.292;2022-07-03T13:35:01;20.30;99.90
4697;DHT22;2362;50.780;0.292;2022-07-03T13:37:26;20.40;99.90
4697;DHT22;2362;50.780;0.292;2022-07-03T13:39:52;20.40;99.90
4697;DHT22;2362;50.780;0.292;2022-07-03T13:42:17;20.30;99.90
4697;DHT22;2362;50.780;0.292;2022-07-03T13:44:43;20.20;99.90
4697;DHT22;2362;50.780;0.292;2022-07-03T13:47:09;20.30;99.90
4697;DHT22;2362;50.780;0.292;2022-07-03T13:49:35;20.20;99.90
4697;DHT22;2362;50.780;0.292;2022-07-03T13:52:01;20.30;99.90
4697;DHT22;2362;50.780;0.292;2022-07-03T13:54:26;20.30;99.90
4697;DHT22;2362;50.780;0.292;2022-07-03T13:56:52;20.30;99.90
4697;DHT22;2362;50.780;0.292;2022-07-03T13:59:18;20.30;99.90
4697;DHT22;2362;50.780;0.292;2022-07-03T14:01:45;20.30;99.90
4697;DHT22;2362;50.780;0.292;2022-07-03T14:04:10;20.20;99.90
4697;DHT22;2362;50.780;0.292;2022-07-03T14:06:36;20.20;99.90
4697;DHT22;2362;50.780;0.292;2022-07-03T14:09:03;20.20;99.90
4697;DHT22;2362;50.780;0.292;2022-07-03T14:11:29;20.20;99.90
4697;DHT22;2362;50.780;0.292;2022-07-03T14:13:54;20.10;99.90
4697;DHT22;2362;50.780;0.292;2022-07-03T14:16:20;20.00;99.90
4697;DHT22;2362;50.780;0.292;2022-07-03T14:18:46;19.90;99.90
4697;DHT22;2362;50.780;0.292;2022-07-03T14:21:12;19.80;99.90
4697;DHT22;2362;50.780;0.292;2022-07-03T14:23:37;19.70;99.90
4697;DHT22;2362;50.780;0.292;2022-07-03T14:26:03;19.90;99.90
4697;DHT22;2362;50.780;0.292;2022-07-03T14:28:29;20.00;99.90
4697;DHT22;2362;50.780;0.292;2022-07-03T14:31:13;20.10;99.90
4697;DHT22;2362;50.780;0.292;2022-07-03T14:33:45;20.10;99.90
4697;DHT22;2362;50.780;0.292;2022-07-03T14:36:11;20.10;99.90
4697;DHT22;2362;50.780;0.292;2022-07-03T14:38:36;20.10;99.90
4697;DHT22;2362;50.780;0.292;2022-07-03T14:41:02;19.90;99.90
4697;DHT22;2362;50.780;0.292;2022-07-03T14:43:28;19.60;99.90
4697;DHT22;2362;50.780;0.292;2022-07-03T14:45:54;19.60;99.90
4697;DHT22;2362;50.780;0.292;2022-07-03T14:48:19;19.50;99.90
4697;DHT22;2362;50.780;0.292;2022-07-03T14:50:46;19.70;99.90
4697;DHT22;2362;50.780;0.292;2022-07-03T14:53:12;19.90;99.90
4697;DHT22;2362;50.780;0.292;2022-07-03T14:55:42;19.90;99.90
4697;DHT22;2362;50.780;0.292;2022-07-03T14:58:15;19.70;99.90
4697;DHT22;2362;50.780;0.292;2022-07-03T15:00:49;19.80;99.90
4697;DHT22;2362;50.780;0.292;2022-07-03T15:03:27;19.80;99.90
4697;DHT22;2362;50.780;0.292;2022-07-03T15:05:58;19.90;99.90
4697;DHT22;2362;50.780;0.292;2022-07-03T15:10:53;20.00;99.90
4697;DHT22;2362;50.780;0.292;2022-07-03T15:13:19;19.90;99.90
4697;DHT22;2362;50.780;0.292;2022-07-03T15:15:47;19.80;99.90
4697;DHT22;2362;50.780;0.292;2022-07-03T15:18:17;19.80;99.90
4697;DHT22;2362;50.780;0.292;2022-07-03T15:20:43;19.90;99.90
4697;DHT22;2362;50.780;0.292;2022-07-03T15:23:10;19.80;99.90
4697;DHT22;2362;50.780;0.292;2022-07-03T15:25:37;19.70;99.90
4697;DHT22;2362;50.780;0.292;2022-07-03T15:28:03;19.70;99.90
4697;DHT22;2362;50.780;0.292;2022-07-03T15:30:29;19.60;99.90
4697;DHT22;2362;50.780;0.292;2022-07-03T15:32:56;19.70;99.90
4697;DHT22;2362;50.780;0.292;2022-07-03T15:35:23;19.90;99.90
4697;DHT22;2362;50.780;0.292;2022-07-03T15:38:14;19.80;99.90
4697;DHT22;2362;50.780;0.292;2022-07-03T15:40:46;19.80;99.90
4697;DHT22;2362;50.780;0.292;2022-07-03T15:54:05;19.90;99.90
4697;DHT22;2362;50.780;0.292;2022-07-03T15:56:36;20.00;99.90
4697;DHT22;2362;50.780;0.292;2022-07-03T15:59:04;20.00;99.90
4697;DHT22;2362;50.780;0.292;2022-07-03T16:01:34;20.00;99.90
4697;DHT22;2362;50.780;0.292;2022-07-03T16:04:54;19.90;99.90
4697;DHT22;2362;50.780;0.292;2022-07-03T16:07:24;19.80;99.90
4697;DHT22;2362;50.780;0.292;2022-07-03T16:09:52;19.80;99.90
4697;DHT22;2362;50.780;0.292;2022-07-03T16:12:18;19.80;99.90
4697;DHT22;2362;50.780;0.292;2022-07-03T16:14:50;19.70;99.90
4697;DHT22;2362;50.780;0.292;2022-07-03T16:17:21;19.70;99.90
4697;DHT22;2362;50.780;0.292;2022-07-03T16:19:48;19.70;99.90
4697;DHT22;2362;50.780;0.292;2022-07-03T16:22:15;19.80;99.90
4697;DHT22;2362;50.780;0.292;2022-07-03T16:24:42;19.80;99.90
4697;DHT22;2362;50.780;0.292;2022-07-03T16:27:12;19.80;99.90
4697;DHT22;2362;50.780;0.292;2022-07-03T16:29:38;19.80;99.90
4697;DHT22;2362;50.780;0.292;2022-07-03T16:32:06;19.80;99.90
4697;DHT22;2362;50.780;0.292;2022-07-03T16:37:13;19.90;99.90
4697;DHT22;2362;50.780;0.292;2022-07-03T16:39:41;19.90;99.90
4697;DHT22;2362;50.780;0.292;2022-07-03T16:42:10;19.80;99.90
4697;DHT22;2362;50.780;0.292;2022-07-03T16:44:41;19.80;99.90
4697;DHT22;2362;50.780;0.292;2022-07-03T16:47:08;19.90;99.90
4697;DHT22;2362;50.780;0.292;2022-07-03T16:49:36;19.90;99.90
4697;DHT22;2362;50.780;0.292;2022-07-03T16:52:06;19.90;99.90
4697;DHT22;2362;50.780;0.292;2022-07-03T16:54:32;19.90;99.90
4697;DHT22;2362;50.780;0.292;2022-07-03T16:56:59;19.90;99.90
4697;DHT22;2362;50.780;0.292;2022-07-03T16:59:26;19.90;99.90
4697;DHT22;2362;50.780;0.292;2022-07-03T17:01:54;20.00;99.90
4697;DHT22;2362;50.780;0.292;2022-07-03T17:04:22;19.90;99.90
4697;DHT22;2362;50.780;0.292;2022-07-03T17:06:49;19.90;99.90
4697;DHT22;2362;50.780;0.292;2022-07-03T17:09:15;19.90;99.90
4697;DHT22;2362;50.780;0.292;2022-07-03T17:11:42;19.90;99.90
4697;DHT22;2362;50.780;0.292;2022-07-03T17:14:09;19.90;99.90
4697;DHT22;2362;50.780;0.292;2022-07-03T17:16:44;19.90;99.90
4697;DHT22;2362;50.780;0.292;2022-07-03T17:19:16;19.90;99.90
4697;DHT22;2362;50.780;0.292;2022-07-03T17:21:46;19.80;99.90
4697;DHT22;2362;50.780;0.292;2022-07-03T17:24:15;19.80;99.90
4697;DHT22;2362;50.780;0.292;2022-07-03T17:26:46;19.80;99.90
4697;DHT22;2362;50.780;0.292;2022-07-03T17:29:22;19.70;99.90
4697;DHT22;2362;50.780;0.292;2022-07-03T17:31:50;19.60;99.90
4697;DHT22;2362;50.780;0.292;2022-07-03T17:34:22;19.50;99.90
4697;DHT22;2362;50.780;0.292;2022-07-03T17:36:50;19.50;99.90
4697;DHT22;2362;50.780;0.292;2022-07-03T17:39:18;19.50;99.90